sensor_id;sensor_type;location;lat;lon;timestamp;temperature;humidity
16479;DHT22;8350;52.316;10.530;2023-08-31T00:02:22;13.60;99.90
16479;DHT22;8350;52.316;10.530;2023-08-31T00:04:52;13.60;99.90
16479;DHT22;8350;52.316;10.530;2023-08-31T00:07:20;13.60;99.90
16479;DHT22;8350;52.316;10.530;2023-08-31T00:09:47;13.60;99.90
16479;DHT22;8350;52.316;10.530;2023-08-31T00:12:15;13.50;99.90
16479;DHT22;8350;52.316;10.530;2023-08-31T00:14:42;13.60;99.90
16479;DHT22;8350;52.316;10.530;2023-08-31T00:17:10;13.50;99.90
16479;DHT22;8350;52.316;10.530;2023-08-31T00:19:39;13.50;99.90
16479;DHT22;8350;52.316;10.530;2023-08-31T00:22:06;13.40;99.90
16479;DHT22;8350;52.316;10.530;2023-08-31T00:24:33;13.50;99.90
16479;DHT22;8350;52.316;10.530;2023-08-31T00:27:02;13.50;99.90
16479;DHT22;8350;52.316;10.530;2023-08-31T00:29:32;13.60;99.90
16479;DHT22;8350;52.316;10.530;2023-08-31T00:31:59;13.60;99.90
16479;DHT22;8350;52.316;10.530;2023-08-31T00:34:27;13.50;99.90
16479;DHT22;8350;52.316;10.530;2023-08-31T00:36:54;13.60;99.90
16479;DHT22;8350;52.316;10.530;2023-08-31T00:39:22;13.60;99.90
16479;DHT22;8350;52.316;10.530;2023-08-31T00:41:48;13.60;99.90
16479;DHT22;8350;52.316;10.530;2023-08-31T00:44:16;13.50;99.90
16479;DHT22;8350;52.316;10.530;2023-08-31T00:46:43;13.40;99.90
16479;DHT22;8350;52.316;10.530;2023-08-31T00:49:10;13.30;99.90
16479;DHT22;8350;52.316;10.530;2023-08-31T00:51:45;13.30;99.90
16479;DHT22;8350;52.316;10.530;2023-08-31T00:54:17;13.30;99.90
16479;DHT22;8350;52.316;10.530;2023-08-31T00:56:44;13.30;99.90
16479;DHT22;8350;52.316;10.530;2023-08-31T00:59:11;13.30;99.90
16479;DHT22;8350;52.316;10.530;2023-08-31T01:01:41;13.30;99.90
16479;DHT22;8350;52.316;10.530;2023-08-31T01:04:17;13.30;99.90
16479;DHT22;8350;52.316;10.530;2023-08-31T01:06:53;13.20;99.90
16479;DHT22;8350;52.316;10.530;2023-08-31T01:09:28;13.10;99.90
16479;DHT22;8350;52.316;10.530;2023-08-31T01:12:00;13.00;99.90
16479;DHT22;8350;52.316;10.530;2023-08-31T01:14:34;13.00;99.90
16479;DHT22;8350;52.316;10.530;2023-08-31T01:17:07;13.00;99.90
16479;DHT22;8350;52.316;10.530;2023-08-31T01:19:44;13.00;99.90
16479;DHT22;8350;52.316;10.530;2023-08-31T01:22:24;12.90;99.90
16479;DHT22;8350;52.316;10.530;2023-08-31T01:24:55;12.80;99.90
16479;DHT22;8350;52.316;10.530;2023-08-31T01:27:23;12.80;99.90
16479;DHT22;8350;52.316;10.530;2023-08-31T01:29:50;12.90;99.90
16479;DHT22;8350;52.316;10.530;2023-08-31T01:32:19;12.90;99.90
16479;DHT22;8350;52.316;10.530;2023-08-31T01:34:47;12.70;99.90
16479;DHT22;8350;52.316;10.530;2023-08-31T01:37:23;12.70;99.90
16479;DHT22;8350;52.316;10.530;2023-08-31T01:39:56;12.70;99.90
16479;DHT22;8350;52.316;10.530;2023-08-31T01:42:26;12.60;99.90
16479;DHT22;8350;52.316;10.530;2023-08-31T01:44:56;12.60;99.90
16479;DHT22;8350;52.316;10.530;2023-08-31T01:47:24;12.50;99.90
16479;DHT22;8350;52.316;10.530;2023-08-31T01:49:51;12.50;99.90
16479;DHT22;8350;52.316;10.530;2023-08-31T01:52:19;12.60;99.90
16479;DHT22;8350;52.316;10.530;2023-08-31T01:54:48;12.60;99.90
16479;DHT22;8350;52.316;10.530;2023-08-31T01:57:17;12.60;99.90
16479;DHT22;8350;52.316;10.530;2023-08-31T01:59:43;12.60;99.90
16479;DHT22;8350;52.316;10.530;2023-08-31T02:02:11;12.60;99.90
16479;DHT22;8350;52.316;10.530;2023-08-31T02:04:38;12.40;99.90
16479;DHT22;8350;52.316;10.530;2023-08-31T02:07:05;12.50;99.90
16479;DHT22;8350;52.316;10.530;2023-08-31T02:09:31;12.40;99.90
16479;DHT22;8350;52.316;10.530;2023-08-31T02:11:58;12.40;99.90
16479;DHT22;8350;52.316;10.530;2023-08-31T02:14:29;12.30;99.90
16479;DHT22;8350;52.316;10.530;2023-08-31T02:16:56;12.30;99.90
16479;DHT22;8350;52.316;10.530;2023-08-31T02:19:23;12.30;99.90
16479;DHT22;8350;52.316;10.530;2023-08-31T02:21:50;12.30;99.90
16479;DHT22;8350;52.316;10.530;2023-08-31T02:24:17;12.20;99.90
16479;DHT22;8350;52.316;10.530;2023-08-31T02:26:44;12.20;99.90
16479;DHT22;8350;52.316;10.530;2023-08-31T02:29:11;12.10;99.90
16479;DHT22;8350;52.316;10.530;2023-08-31T02:31:39;12.10;99.90
16479;DHT22;8350;52.316;10.530;2023-08-31T02:34:07;12.00;99.90
16479;DHT22;8350;52.316;10.530;2023-08-31T02:36:34;12.00;99.90
16479;DHT22;8350;52.316;10.530;2023-08-31T02:39:01;12.00;99.90
16479;DHT22;8350;52.316;10.530;2023-08-31T02:41:29;12.00;99.90
16479;DHT22;8350;52.316;10.530;2023-08-31T02:43:56;12.00;99.90
16479;DHT22;8350;52.316;10.530;2023-08-31T02:46:23;12.00;99.90
16479;DHT22;8350;52.316;10.530;2023-08-31T02:48:52;12.00;99.90
16479;DHT22;8350;52.316;10.530;2023-08-31T02:51:19;12.00;99.90
16479;DHT22;8350;52.316;10.530;2023-08-31T02:53:46;11.90;99.90
16479;DHT22;8350;52.316;10.530;2023-08-31T02:56:13;12.00;99.90
16479;DHT22;8350;52.316;10.530;2023-08-31T02:58:40;11.90;99.90
16479;DHT22;8350;52.316;10.530;2023-08-31T03:01:08;11.90;99.90
16479;DHT22;8350;52.316;10.530;2023-08-31T03:03:37;11.90;99.90
16479;DHT22;8350;52.316;10.530;2023-08-31T03:06:06;11.90;99.90
16479;DHT22;8350;52.316;10.530;2023-08-31T03:08:34;11.90;99.90
16479;DHT22;8350;52.316;10.530;2023-08-31T03:11:02;12.00;99.90
16479;DHT22;8350;52.316;10.530;2023-08-31T03:13:30;12.00;99.90
16479;DHT22;8350;52.316;10.530;2023-08-31T03:15:57;12.00;99.90
16479;DHT22;8350;52.316;10.530;2023-08-31T03:18:24;11.90;99.90
16479;DHT22;8350;52.316;10.530;2023-08-31T03:20:51;11.90;99.90
16479;DHT22;8350;52.316;10.530;2023-08-31T03:23:19;11.90;99.90
16479;DHT22;8350;52.316;10.530;2023-08-31T03:25:46;11.90;99.90
16479;DHT22;8350;52.316;10.530;2023-08-31T03:28:14;11.90;99.90
16479;DHT22;8350;52.316;10.530;2023-08-31T03:30:41;11.90;99.90
16479;DHT22;8350;52.316;10.530;2023-08-31T03:33:10;11.80;99.90
16479;DHT22;8350;52.316;10.530;2023-08-31T03:35:37;11.80;99.90
16479;DHT22;8350;52.316;10.530;2023-08-31T03:38:09;11.90;99.90
16479;DHT22;8350;52.316;10.530;2023-08-31T03:40:38;11.90;99.90
16479;DHT22;8350;52.316;10.530;2023-08-31T03:43:05;11.80;99.90
16479;DHT22;8350;52.316;10.530;2023-08-31T03:45:32;11.80;99.90
16479;DHT22;8350;52.316;10.530;2023-08-31T03:47:59;11.80;99.90
16479;DHT22;8350;52.316;10.530;2023-08-31T03:50:26;11.80;99.90
16479;DHT22;8350;52.316;10.530;2023-08-31T03:52:53;11.70;99.90
16479;DHT22;8350;52.316;10.530;2023-08-31T03:55:20;11.80;99.90
16479;DHT22;8350;52.316;10.530;2023-08-31T03:57:49;11.70;99.90
16479;DHT22;8350;52.316;10.530;2023-08-31T04:00:16;11.70;99.90
16479;DHT22;8350;52.316;10.530;2023-08-31T04:02:43;11.80;99.90
16479;DHT22;8350;52.316;10.530;2023-08-31T04:05:10;11.80;99.90
16479;DHT22;8350;52.316;10.530;2023-08-31T04:07:40;11.80;99.90
16479;DHT22;8350;52.316;10.530;2023-08-31T04:10:08;11.80;99.90
16479;DHT22;8350;52.316;10.530;2023-08-31T04:12:38;11.70;99.90
16479;DHT22;8350;52.316;10.530;2023-08-31T04:15:10;11.80;99.90
16479;DHT22;8350;52.316;10.530;2023-08-31T04:17:39;11.70;99.90
16479;DHT22;8350;52.316;10.530;2023-08-31T04:20:07;11.70;99.90
16479;DHT22;8350;52.316;10.530;2023-08-31T04:22:34;11.70;99.90
16479;DHT22;8350;52.316;10.530;2023-08-31T04:25:01;11.70;99.90
16479;DHT22;8350;52.316;10.530;2023-08-31T04:27:29;11.70;99.90
16479;DHT22;8350;52.316;10.530;2023-08-31T04:29:56;11.70;99.90
16479;DHT22;8350;52.316;10.530;2023-08-31T04:32:25;11.80;99.90
16479;DHT22;8350;52.316;10.530;2023-08-31T04:34:53;11.70;99.90
16479;DHT22;8350;52.316;10.530;2023-08-31T04:37:21;11.70;99.90
16479;DHT22;8350;52.316;10.530;2023-08-31T04:39:48;11.70;99.90
16479;DHT22;8350;52.316;10.530;2023-08-31T04:42:15;11.70;99.90
16479;DHT22;8350;52.316;10.530;2023-08-31T04:44:43;11.70;99.90
16479;DHT22;8350;52.316;10.530;2023-08-31T04:47:10;11.70;99.90
16479;DHT22;8350;52.316;10.530;2023-08-31T04:49:39;11.80;99.90
16479;DHT22;8350;52.316;10.530;2023-08-31T04:52:06;11.70;99.90
16479;DHT22;8350;52.316;10.530;2023-08-31T04:54:33;11.80;99.90
16479;DHT22;8350;52.316;10.530;2023-08-31T04:57:00;11.90;99.90
16479;DHT22;8350;52.316;10.530;2023-08-31T04:59:29;11.90;99.90
16479;DHT22;8350;52.316;10.530;2023-08-31T05:01:56;12.00;99.90
16479;DHT22;8350;52.316;10.530;2023-08-31T05:04:23;12.10;99.90
16479;DHT22;8350;52.316;10.530;2023-08-31T05:06:51;12.20;99.90
16479;DHT22;8350;52.316;10.530;2023-08-31T05:09:18;12.40;99.90
16479;DHT22;8350;52.316;10.530;2023-08-31T05:11:45;12.50;99.90
16479;DHT22;8350;52.316;10.530;2023-08-31T05:14:12;12.50;99.90
16479;DHT22;8350;52.316;10.530;2023-08-31T05:16:39;12.70;99.90
16479;DHT22;8350;52.316;10.530;2023-08-31T05:19:06;12.80;99.90
16479;DHT22;8350;52.316;10.530;2023-08-31T05:21:33;12.90;99.90
16479;DHT22;8350;52.316;10.530;2023-08-31T05:24:02;12.90;99.90
16479;DHT22;8350;52.316;10.530;2023-08-31T05:26:29;12.80;99.90
16479;DHT22;8350;52.316;10.530;2023-08-31T05:28:56;12.90;99.90
16479;DHT22;8350;52.316;10.530;2023-08-31T05:31:23;13.20;99.90
16479;DHT22;8350;52.316;10.530;2023-08-31T05:33:50;13.80;99.90
16479;DHT22;8350;52.316;10.530;2023-08-31T05:36:18;14.30;99.90
16479;DHT22;8350;52.316;10.530;2023-08-31T05:38:45;14.90;99.90
16479;DHT22;8350;52.316;10.530;2023-08-31T05:41:13;15.40;99.90
16479;DHT22;8350;52.316;10.530;2023-08-31T05:43:40;16.00;99.90
16479;DHT22;8350;52.316;10.530;2023-08-31T05:46:07;16.40;99.90
16479;DHT22;8350;52.316;10.530;2023-08-31T05:48:34;16.80;92.40
16479;DHT22;8350;52.316;10.530;2023-08-31T05:51:02;17.10;1.00
16479;DHT22;8350;52.316;10.530;2023-08-31T05:53:29;17.40;99.90
16479;DHT22;8350;52.316;10.530;2023-08-31T05:55:57;17.60;99.90
16479;DHT22;8350;52.316;10.530;2023-08-31T05:58:31;17.90;99.90
16479;DHT22;8350;52.316;10.530;2023-08-31T06:00:59;17.10;99.90
16479;DHT22;8350;52.316;10.530;2023-08-31T06:03:26;16.40;1.00
16479;DHT22;8350;52.316;10.530;2023-08-31T06:05:53;15.60;1.00
16479;DHT22;8350;52.316;10.530;2023-08-31T06:08:20;15.00;1.00
16479;DHT22;8350;52.316;10.530;2023-08-31T06:10:53;14.60;1.00
16479;DHT22;8350;52.316;10.530;2023-08-31T06:13:20;14.30;90.30
16479;DHT22;8350;52.316;10.530;2023-08-31T06:15:48;14.00;99.90
16479;DHT22;8350;52.316;10.530;2023-08-31T06:18:15;13.80;99.90
16479;DHT22;8350;52.316;10.530;2023-08-31T06:20:42;13.60;99.90
16479;DHT22;8350;52.316;10.530;2023-08-31T06:23:10;14.00;99.90
16479;DHT22;8350;52.316;10.530;2023-08-31T06:25:37;14.70;34.50
16479;DHT22;8350;52.316;10.530;2023-08-31T06:28:05;15.20;1.00
16479;DHT22;8350;52.316;10.530;2023-08-31T06:30:34;16.00;1.00
16479;DHT22;8350;52.316;10.530;2023-08-31T06:33:02;16.20;1.00
16479;DHT22;8350;52.316;10.530;2023-08-31T06:35:30;16.50;1.00
16479;DHT22;8350;52.316;10.530;2023-08-31T06:37:57;16.50;1.00
16479;DHT22;8350;52.316;10.530;2023-08-31T06:40:24;16.60;1.00
16479;DHT22;8350;52.316;10.530;2023-08-31T06:42:51;16.30;1.00
16479;DHT22;8350;52.316;10.530;2023-08-31T06:45:18;16.30;1.00
16479;DHT22;8350;52.316;10.530;2023-08-31T06:47:45;16.20;1.00
16479;DHT22;8350;52.316;10.530;2023-08-31T06:50:19;16.10;1.00
16479;DHT22;8350;52.316;10.530;2023-08-31T06:52:46;16.20;1.00
16479;DHT22;8350;52.316;10.530;2023-08-31T06:55:13;16.20;1.00
16479;DHT22;8350;52.316;10.530;2023-08-31T06:57:40;16.20;1.00
16479;DHT22;8350;52.316;10.530;2023-08-31T07:00:09;15.90;1.00
16479;DHT22;8350;52.316;10.530;2023-08-31T07:02:39;15.60;1.00
16479;DHT22;8350;52.316;10.530;2023-08-31T07:05:06;15.60;1.00
16479;DHT22;8350;52.316;10.530;2023-08-31T07:07:35;15.50;1.00
16479;DHT22;8350;52.316;10.530;2023-08-31T07:10:02;15.40;1.00
16479;DHT22;8350;52.316;10.530;2023-08-31T07:12:31;15.20;1.00
16479;DHT22;8350;52.316;10.530;2023-08-31T07:14:58;15.10;1.00
16479;DHT22;8350;52.316;10.530;2023-08-31T07:17:25;15.00;1.00
16479;DHT22;8350;52.316;10.530;2023-08-31T07:19:52;15.20;1.00
16479;DHT22;8350;52.316;10.530;2023-08-31T07:22:19;15.50;1.00
16479;DHT22;8350;52.316;10.530;2023-08-31T07:24:48;15.60;1.00
16479;DHT22;8350;52.316;10.530;2023-08-31T07:27:15;15.70;1.00
16479;DHT22;8350;52.316;10.530;2023-08-31T07:29:43;15.80;1.00
16479;DHT22;8350;52.316;10.530;2023-08-31T07:32:09;16.00;1.00
16479;DHT22;8350;52.316;10.530;2023-08-31T07:34:37;16.40;1.00
16479;DHT22;8350;52.316;10.530;2023-08-31T07:37:11;16.60;1.00
16479;DHT22;8350;52.316;10.530;2023-08-31T07:39:38;16.90;1.00
16479;DHT22;8350;52.316;10.530;2023-08-31T07:42:07;17.10;1.00
16479;DHT22;8350;52.316;10.530;2023-08-31T07:44:34;17.40;1.00
16479;DHT22;8350;52.316;10.530;2023-08-31T07:47:01;17.40;99.90
16479;DHT22;8350;52.316;10.530;2023-08-31T07:49:29;17.10;99.90
16479;DHT22;8350;52.316;10.530;2023-08-31T07:51:58;16.70;99.90
16479;DHT22;8350;52.316;10.530;2023-08-31T07:54:25;16.50;99.90
16479;DHT22;8350;52.316;10.530;2023-08-31T07:56:52;16.60;99.90
16479;DHT22;8350;52.316;10.530;2023-08-31T07:59:21;16.60;99.90
16479;DHT22;8350;52.316;10.530;2023-08-31T08:01:48;16.60;99.90
16479;DHT22;8350;52.316;10.530;2023-08-31T08:04:15;16.70;99.90
16479;DHT22;8350;52.316;10.530;2023-08-31T08:06:44;16.50;99.90
16479;DHT22;8350;52.316;10.530;2023-08-31T08:09:11;16.50;99.90
16479;DHT22;8350;52.316;10.530;2023-08-31T08:11:39;16.50;99.90
16479;DHT22;8350;52.316;10.530;2023-08-31T08:14:07;16.50;99.90
16479;DHT22;8350;52.316;10.530;2023-08-31T08:16:36;16.30;99.90
16479;DHT22;8350;52.316;10.530;2023-08-31T08:19:02;16.10;99.90
16479;DHT22;8350;52.316;10.530;2023-08-31T08:21:30;16.20;1.00
16479;DHT22;8350;52.316;10.530;2023-08-31T08:23:56;16.10;1.00
16479;DHT22;8350;52.316;10.530;2023-08-31T08:26:26;16.00;1.00
16479;DHT22;8350;52.316;10.530;2023-08-31T08:28:53;16.20;1.00
16479;DHT22;8350;52.316;10.530;2023-08-31T08:31:20;16.30;99.90
16479;DHT22;8350;52.316;10.530;2023-08-31T08:33:49;16.60;99.90
16479;DHT22;8350;52.316;10.530;2023-08-31T08:36:15;16.90;1.00
16479;DHT22;8350;52.316;10.530;2023-08-31T08:38:42;17.00;1.00
16479;DHT22;8350;52.316;10.530;2023-08-31T08:41:10;17.10;1.00
16479;DHT22;8350;52.316;10.530;2023-08-31T08:43:47;17.00;1.00
16479;DHT22;8350;52.316;10.530;2023-08-31T08:46:15;16.90;1.00
16479;DHT22;8350;52.316;10.530;2023-08-31T08:48:42;17.00;99.90
16479;DHT22;8350;52.316;10.530;2023-08-31T08:51:14;17.00;1.00
16479;DHT22;8350;52.316;10.530;2023-08-31T08:53:43;17.10;1.00
16479;DHT22;8350;52.316;10.530;2023-08-31T08:56:10;16.90;1.00
16479;DHT22;8350;52.316;10.530;2023-08-31T08:58:40;16.90;1.00
16479;DHT22;8350;52.316;10.530;2023-08-31T09:01:07;17.10;1.00
16479;DHT22;8350;52.316;10.530;2023-08-31T09:03:34;17.10;99.90
16479;DHT22;8350;52.316;10.530;2023-08-31T09:06:01;17.10;99.90
16479;DHT22;8350;52.316;10.530;2023-08-31T09:08:35;17.10;92.10
16479;DHT22;8350;52.316;10.530;2023-08-31T09:11:02;17.10;99.90
16479;DHT22;8350;52.316;10.530;2023-08-31T09:13:30;17.20;99.90
16479;DHT22;8350;52.316;10.530;2023-08-31T09:15:57;17.10;1.00
16479;DHT22;8350;52.316;10.530;2023-08-31T09:18:25;17.10;1.00
16479;DHT22;8350;52.316;10.530;2023-08-31T09:20:56;16.90;1.00
16479;DHT22;8350;52.316;10.530;2023-08-31T09:23:23;16.70;99.90
16479;DHT22;8350;52.316;10.530;2023-08-31T09:25:52;16.50;1.00
16479;DHT22;8350;52.316;10.530;2023-08-31T09:28:21;16.70;1.00
16479;DHT22;8350;52.316;10.530;2023-08-31T09:30:49;16.90;1.00
16479;DHT22;8350;52.316;10.530;2023-08-31T09:33:18;17.30;1.00
16479;DHT22;8350;52.316;10.530;2023-08-31T09:35:50;17.70;99.90
16479;DHT22;8350;52.316;10.530;2023-08-31T09:38:17;18.00;98.00
16479;DHT22;8350;52.316;10.530;2023-08-31T09:40:45;18.40;1.00
16479;DHT22;8350;52.316;10.530;2023-08-31T09:43:19;18.60;1.00
16479;DHT22;8350;52.316;10.530;2023-08-31T09:45:46;18.60;1.00
16479;DHT22;8350;52.316;10.530;2023-08-31T09:48:15;18.80;99.90
16479;DHT22;8350;52.316;10.530;2023-08-31T09:50:44;18.90;1.00
16479;DHT22;8350;52.316;10.530;2023-08-31T09:53:12;18.70;1.00
16479;DHT22;8350;52.316;10.530;2023-08-31T09:55:40;18.80;1.00
16479;DHT22;8350;52.316;10.530;2023-08-31T09:58:08;19.00;1.00
16479;DHT22;8350;52.316;10.530;2023-08-31T10:00:37;19.10;1.00
16479;DHT22;8350;52.316;10.530;2023-08-31T10:03:05;19.50;99.90
16479;DHT22;8350;52.316;10.530;2023-08-31T10:05:32;19.40;99.90
16479;DHT22;8350;52.316;10.530;2023-08-31T10:08:00;19.00;84.10
16479;DHT22;8350;52.316;10.530;2023-08-31T10:10:28;18.80;1.00
16479;DHT22;8350;52.316;10.530;2023-08-31T10:12:56;18.70;1.00
16479;DHT22;8350;52.316;10.530;2023-08-31T10:15:26;18.60;1.00
16479;DHT22;8350;52.316;10.530;2023-08-31T10:18:00;18.60;1.00
16479;DHT22;8350;52.316;10.530;2023-08-31T10:20:29;18.70;1.00
16479;DHT22;8350;52.316;10.530;2023-08-31T10:22:59;19.00;1.00
16479;DHT22;8350;52.316;10.530;2023-08-31T10:26:01;19.00;99.90
16479;DHT22;8350;52.316;10.530;2023-08-31T10:28:30;19.00;1.00
16479;DHT22;8350;52.316;10.530;2023-08-31T10:31:06;18.60;1.70
16479;DHT22;8350;52.316;10.530;2023-08-31T10:33:39;18.50;99.90
16479;DHT22;8350;52.316;10.530;2023-08-31T10:36:12;18.60;99.90
16479;DHT22;8350;52.316;10.530;2023-08-31T10:38:39;18.80;47.70
16479;DHT22;8350;52.316;10.530;2023-08-31T10:41:22;18.90;1.00
16479;DHT22;8350;52.316;10.530;2023-08-31T10:43:51;18.60;99.90
16479;DHT22;8350;52.316;10.530;2023-08-31T10:49:14;18.20;1.00
16479;DHT22;8350;52.316;10.530;2023-08-31T10:51:44;18.20;1.00
16479;DHT22;8350;52.316;10.530;2023-08-31T10:54:12;18.20;99.90
16479;DHT22;8350;52.316;10.530;2023-08-31T10:57:04;18.10;1.00
16479;DHT22;8350;52.316;10.530;2023-08-31T10:59:46;18.40;1.00
16479;DHT22;8350;52.316;10.530;2023-08-31T11:02:34;18.50;1.00
16479;DHT22;8350;52.316;10.530;2023-08-31T11:05:10;18.40;1.00
16479;DHT22;8350;52.316;10.530;2023-08-31T11:07:38;18.50;99.90
16479;DHT22;8350;52.316;10.530;2023-08-31T11:10:14;18.30;1.00
16479;DHT22;8350;52.316;10.530;2023-08-31T11:12:46;18.10;1.00
16479;DHT22;8350;52.316;10.530;2023-08-31T11:15:13;18.20;99.90
16479;DHT22;8350;52.316;10.530;2023-08-31T11:17:41;18.30;99.90
16479;DHT22;8350;52.316;10.530;2023-08-31T11:20:13;18.20;1.00
16479;DHT22;8350;52.316;10.530;2023-08-31T11:22:43;18.10;99.90
16479;DHT22;8350;52.316;10.530;2023-08-31T11:25:13;18.20;1.00
16479;DHT22;8350;52.316;10.530;2023-08-31T11:27:40;18.50;1.00
16479;DHT22;8350;52.316;10.530;2023-08-31T11:30:14;19.00;83.60
16479;DHT22;8350;52.316;10.530;2023-08-31T11:32:45;19.40;1.00
16479;DHT22;8350;52.316;10.530;2023-08-31T11:35:14;19.60;1.00
16479;DHT22;8350;52.316;10.530;2023-08-31T11:37:42;19.80;1.00
16479;DHT22;8350;52.316;10.530;2023-08-31T11:40:10;19.70;99.90
16479;DHT22;8350;52.316;10.530;2023-08-31T11:42:37;19.40;1.00
16479;DHT22;8350;52.316;10.530;2023-08-31T11:45:05;19.30;1.00
16479;DHT22;8350;52.316;10.530;2023-08-31T11:47:33;19.30;1.00
16479;DHT22;8350;52.316;10.530;2023-08-31T11:50:01;19.30;65.40
16479;DHT22;8350;52.316;10.530;2023-08-31T11:52:32;19.50;99.90
16479;DHT22;8350;52.316;10.530;2023-08-31T11:54:59;19.60;1.00
16479;DHT22;8350;52.316;10.530;2023-08-31T11:57:26;19.80;1.00
16479;DHT22;8350;52.316;10.530;2023-08-31T11:59:54;20.00;1.00
16479;DHT22;8350;52.316;10.530;2023-08-31T12:02:22;20.20;99.90
16479;DHT22;8350;52.316;10.530;2023-08-31T12:04:49;20.20;1.00
16479;DHT22;8350;52.316;10.530;2023-08-31T12:07:17;20.30;1.00
16479;DHT22;8350;52.316;10.530;2023-08-31T12:09:45;20.40;99.90
16479;DHT22;8350;52.316;10.530;2023-08-31T12:12:14;20.40;99.90
16479;DHT22;8350;52.316;10.530;2023-08-31T12:14:43;20.30;99.90
16479;DHT22;8350;52.316;10.530;2023-08-31T12:17:09;20.20;1.00
16479;DHT22;8350;52.316;10.530;2023-08-31T12:19:38;20.20;1.00
16479;DHT22;8350;52.316;10.530;2023-08-31T12:22:08;20.40;1.00
16479;DHT22;8350;52.316;10.530;2023-08-31T12:24:38;20.60;1.00
16479;DHT22;8350;52.316;10.530;2023-08-31T12:27:07;20.50;99.90
16479;DHT22;8350;52.316;10.530;2023-08-31T12:29:34;20.20;1.00
16479;DHT22;8350;52.316;10.530;2023-08-31T12:32:01;19.90;1.00
16479;DHT22;8350;52.316;10.530;2023-08-31T12:34:29;19.70;99.90
16479;DHT22;8350;52.316;10.530;2023-08-31T12:36:57;19.70;99.90
16479;DHT22;8350;52.316;10.530;2023-08-31T12:39:26;20.00;1.00
16479;DHT22;8350;52.316;10.530;2023-08-31T12:41:53;20.50;1.00
16479;DHT22;8350;52.316;10.530;2023-08-31T12:44:21;20.60;99.90
16479;DHT22;8350;52.316;10.530;2023-08-31T12:46:48;20.40;99.90
16479;DHT22;8350;52.316;10.530;2023-08-31T12:49:15;20.30;99.90
16479;DHT22;8350;52.316;10.530;2023-08-31T12:51:42;20.40;99.90
16479;DHT22;8350;52.316;10.530;2023-08-31T12:54:09;20.40;91.80
16479;DHT22;8350;52.316;10.530;2023-08-31T12:56:36;20.50;20.40
16479;DHT22;8350;52.316;10.530;2023-08-31T12:59:04;20.70;1.00
16479;DHT22;8350;52.316;10.530;2023-08-31T13:01:33;20.70;1.00
16479;DHT22;8350;52.316;10.530;2023-08-31T13:04:03;20.70;1.00
16479;DHT22;8350;52.316;10.530;2023-08-31T13:06:30;20.90;1.00
16479;DHT22;8350;52.316;10.530;2023-08-31T13:08:57;21.10;1.00
16479;DHT22;8350;52.316;10.530;2023-08-31T13:11:23;21.00;99.90
16479;DHT22;8350;52.316;10.530;2023-08-31T13:13:50;20.80;99.90
16479;DHT22;8350;52.316;10.530;2023-08-31T13:16:18;20.20;1.00
16479;DHT22;8350;52.316;10.530;2023-08-31T13:18:49;19.90;1.00
16479;DHT22;8350;52.316;10.530;2023-08-31T13:21:16;19.70;1.00
16479;DHT22;8350;52.316;10.530;2023-08-31T13:23:43;19.60;1.00
16479;DHT22;8350;52.316;10.530;2023-08-31T13:26:10;19.60;37.90
16479;DHT22;8350;52.316;10.530;2023-08-31T13:28:37;19.40;99.90
16479;DHT22;8350;52.316;10.530;2023-08-31T13:31:04;19.30;1.00
16479;DHT22;8350;52.316;10.530;2023-08-31T13:33:31;19.20;97.30
16479;DHT22;8350;52.316;10.530;2023-08-31T13:36:00;19.40;99.20
16479;DHT22;8350;52.316;10.530;2023-08-31T13:38:27;19.80;1.00
16479;DHT22;8350;52.316;10.530;2023-08-31T13:40:54;19.90;99.90
16479;DHT22;8350;52.316;10.530;2023-08-31T13:43:25;20.00;99.90
16479;DHT22;8350;52.316;10.530;2023-08-31T13:45:52;20.20;99.90
16479;DHT22;8350;52.316;10.530;2023-08-31T13:48:19;20.10;99.90
16479;DHT22;8350;52.316;10.530;2023-08-31T13:50:48;20.00;99.90
16479;DHT22;8350;52.316;10.530;2023-08-31T13:53:17;20.10;99.90
16479;DHT22;8350;52.316;10.530;2023-08-31T13:55:44;20.10;1.00
16479;DHT22;8350;52.316;10.530;2023-08-31T13:58:11;19.80;1.00
16479;DHT22;8350;52.316;10.530;2023-08-31T14:00:39;19.70;99.90
16479;DHT22;8350;52.316;10.530;2023-08-31T14:03:08;19.30;99.90
16479;DHT22;8350;52.316;10.530;2023-08-31T14:05:35;19.20;1.00
16479;DHT22;8350;52.316;10.530;2023-08-31T14:08:02;19.20;99.90
16479;DHT22;8350;52.316;10.530;2023-08-31T14:10:31;19.20;1.00
16479;DHT22;8350;52.316;10.530;2023-08-31T14:12:58;19.50;1.00
16479;DHT22;8350;52.316;10.530;2023-08-31T14:15:26;19.60;99.90
16479;DHT22;8350;52.316;10.530;2023-08-31T14:17:53;19.60;99.90
16479;DHT22;8350;52.316;10.530;2023-08-31T14:22:45;19.10;1.00
16479;DHT22;8350;52.316;10.530;2023-08-31T14:25:12;18.80;14.90
16479;DHT22;8350;52.316;10.530;2023-08-31T14:27:41;18.40;99.90
16479;DHT22;8350;52.316;10.530;2023-08-31T14:30:09;18.00;1.00
16479;DHT22;8350;52.316;10.530;2023-08-31T14:32:36;17.70;99.90
16479;DHT22;8350;52.316;10.530;2023-08-31T14:35:04;17.30;99.90
16479;DHT22;8350;52.316;10.530;2023-08-31T14:37:32;16.90;99.90
16479;DHT22;8350;52.316;10.530;2023-08-31T14:39:59;16.50;1.00
16479;DHT22;8350;52.316;10.530;2023-08-31T14:42:26;16.40;1.00
16479;DHT22;8350;52.316;10.530;2023-08-31T14:45:20;16.20;1.00
16479;DHT22;8350;52.316;10.530;2023-08-31T14:47:49;16.20;1.00
16479;DHT22;8350;52.316;10.530;2023-08-31T14:50:16;16.30;1.00
16479;DHT22;8350;52.316;10.530;2023-08-31T14:52:43;16.60;1.00
16479;DHT22;8350;52.316;10.530;2023-08-31T14:55:10;16.80;1.00
16479;DHT22;8350;52.316;10.530;2023-08-31T14:57:37;16.90;1.00
16479;DHT22;8350;52.316;10.530;2023-08-31T15:00:08;16.80;1.00
16479;DHT22;8350;52.316;10.530;2023-08-31T15:02:37;16.50;1.00
16479;DHT22;8350;52.316;10.530;2023-08-31T15:05:05;16.30;1.00
16479;DHT22;8350;52.316;10.530;2023-08-31T15:07:32;16.50;1.00
16479;DHT22;8350;52.316;10.530;2023-08-31T15:09:59;16.50;99.90
16479;DHT22;8350;52.316;10.530;2023-08-31T15:12:27;16.40;99.90
16479;DHT22;8350;52.316;10.530;2023-08-31T15:14:55;16.40;99.90
16479;DHT22;8350;52.316;10.530;2023-08-31T15:17:22;16.50;99.90
16479;DHT22;8350;52.316;10.530;2023-08-31T15:19:54;16.70;39.10
16479;DHT22;8350;52.316;10.530;2023-08-31T15:22:24;16.80;99.90
16479;DHT22;8350;52.316;10.530;2023-08-31T15:24:52;16.70;1.00
16479;DHT22;8350;52.316;10.530;2023-08-31T15:27:19;16.70;1.00
16479;DHT22;8350;52.316;10.530;2023-08-31T15:29:49;16.60;76.10
16479;DHT22;8350;52.316;10.530;2023-08-31T15:32:17;16.60;1.00
16479;DHT22;8350;52.316;10.530;2023-08-31T15:34:45;16.70;99.90
16479;DHT22;8350;52.316;10.530;2023-08-31T15:37:13;16.70;1.00
16479;DHT22;8350;52.316;10.530;2023-08-31T15:39:40;16.50;1.00
16479;DHT22;8350;52.316;10.530;2023-08-31T15:42:07;16.40;1.00
16479;DHT22;8350;52.316;10.530;2023-08-31T15:44:40;16.30;1.00
16479;DHT22;8350;52.316;10.530;2023-08-31T15:47:07;16.20;99.90
16479;DHT22;8350;52.316;10.530;2023-08-31T15:49:34;16.00;97.10
16479;DHT22;8350;52.316;10.530;2023-08-31T15:52:01;16.00;99.90